Pronóstico
Mapa Interactivo
Aviación
Climatología
Hidrometeorología
Agrometeorología
Estaciones Automáticas
Transparencia
OMM WMO
Portada
Institución
Noticias
Imágenes
Tsunami
Historial
Boletines y Alertas
Contactos
Buscar Contenidos
Informe del Tiempo

SANTO DOMINGO 11 DE DICIEMBRE DEL 2018

                                                                                                                                      AEROP. INT. LAS AMERICAS JFPG-

 

 

FTDR31 MDSD 112200Z
TAF 

TAF MDPP 112200Z 1200/1224 09007KT 9999 SCT022 PROB30 1200/1204 8000 -SH BKN016 BECMG 1202/1204 00000KT=

TAF MDST 112200Z 1200/1224 11008KT 9999 SCT018 BECMG 1202/1204 00000KT=

TAF MDPC 112200Z 1200/1224 15010KT 9999 SCT018 BECMG 1203/1206 00000KT PROB30 1206/1209 8000 SH BKN018 =

TAF MDBH 112200Z 1200/1224 13010KT 9999 FEW018 SCT300 BECMG 1208/1210 00000KT=

TAF MDJB 112200Z 1200/1224 00000KT 9999 FEW020 SCT080 BECMG 1213/1215 04005KT=

TAF MDSD 112200Z 1200/1224 04004KT 9999 SCT018 BECMG 1217/1219 15007KT=  

TAF MDLR 112200Z 1200/1224 00000KT 9999 SCT016 SCT070 BECMG 1213/1215 16012KT=

TAF MDCY 112200Z 1200/1224 04006KT 9999 BKN016 PROB40 1201/1207 8000 -RA BECMG 1200/1202 000000KT

 

MDPP AEROPUERTO INTERNACIONAL LA UNION PUERTO PLATA

MDST AEROPUERTO INTERNACIONAL DE SANTIAGO

MDPC AEROPUERTO INTERNACIONAL PUNTA CANA

MDBH AEROPUERTO INTERNACIONAL DE BARAHONA

MDJB AEROPUERTO INTERNACIONAL JOAQUIN BALAGUER

MDSD AEROPUERTO INTERNACIONAL LAS AMERICAS

MDLR AEROPUERTO INTERNACIONAL LA ROMANA

MDCY AEROPUERTO INTERNACIONAL DE CATEY

 

ELIZABETH FELIZ B.

MDPP// J. URBAEZ

MDST//  D. RAMOS

MDPC// I FELIZ.

MDBH// L. MENDEZ

MDJB// B. MEDRANO

MDCY// A. LOPEZ